90°F Temp
66°F Dewpoint
% Humidity
Temperature
8 MPH
13 KM/H
7 KTS
20°
North North
East

Wind Speed
Clear
Conditions
Pressure 1011.52 (hPa) - 29.87 (in)
Visibility 10.0 (mi) - 16.1 (km)

Current Conditions
KEQY
Location 15.55km (9.66mi)
Metar :KEQY 111653Z AUTO 02007KT 10SM CLR 32/19 A2987 RMK AO2 SLP110 T03220194
Sat 11th July 12:53 pm

Airport
  Metar Aviation API Data Provided by https://www.checkwx.com/ CSS/SVG/PHP scripts by weather34.com © 2015-2020